createdAt,value
2022-08-18T00:00:15.301Z,6.00
2022-08-18T00:02:30.278Z,7.20
2022-08-18T00:04:45.258Z,8.25
2022-08-18T00:06:52.410Z,6.60
2022-08-18T00:08:55.138Z,6.40
2022-08-18T00:10:58.653Z,6.00
2022-08-18T00:13:01.496Z,6.50
2022-08-18T00:15:07.297Z,8.00
2022-08-18T00:17:19.305Z,10.00
2022-08-18T00:19:47.014Z,9.00
2022-08-18T00:21:50.925Z,8.00
2022-08-18T00:23:54.013Z,8.60
2022-08-18T00:25:57.851Z,5.40
2022-08-18T00:28:02.234Z,6.00
2022-08-18T00:30:08.956Z,7.00
2022-08-18T00:32:23.995Z,7.00
2022-08-18T00:34:26.543Z,7.00
2022-08-18T00:36:34.783Z,6.00
2022-08-18T00:38:38.151Z,4.25
2022-08-18T00:40:48.353Z,5.00
2022-08-18T00:42:53.928Z,6.00
2022-08-18T00:44:57.761Z,5.50
2022-08-18T00:47:00.274Z,8.00
2022-08-18T00:49:04.533Z,7.75
2022-08-18T00:51:26.008Z,6.75
2022-08-18T00:53:49.719Z,6.80
2022-08-18T00:55:54.829Z,9.00
2022-08-18T00:58:11.777Z,9.00
2022-08-18T01:00:15.373Z,11.60
2022-08-18T01:02:26.639Z,8.80
2022-08-18T01:04:37.150Z,9.40
2022-08-18T01:06:53.439Z,9.00
2022-08-18T01:08:56.156Z,6.00
2022-08-18T01:11:02.732Z,7.50
2022-08-18T01:13:06.077Z,7.00
2022-08-18T01:15:09.370Z,7.00
2022-08-18T01:17:50.013Z,9.00
2022-08-18T01:20:12.121Z,6.00
2022-08-18T01:22:27.734Z,6.00
2022-08-18T01:24:55.005Z,8.00
2022-08-18T01:26:57.562Z,7.00
2022-08-18T01:29:06.108Z,8.00
2022-08-18T01:31:10.490Z,6.80
2022-08-18T01:33:13.040Z,7.25
2022-08-18T01:35:18.023Z,7.00
2022-08-18T01:37:23.569Z,7.40
2022-08-18T01:41:23.719Z,8.25
2022-08-18T01:42:15.024Z,7.60
2022-08-18T01:44:17.768Z,7.75
2022-08-18T01:46:21.852Z,10.00
2022-08-18T01:48:24.538Z,6.00
2022-08-18T01:50:27.142Z,6.75
2022-08-18T01:52:29.785Z,7.60
2022-08-18T01:54:32.806Z,5.25
2022-08-18T01:56:36.823Z,6.00
2022-08-18T01:58:39.373Z,8.00
2022-08-18T02:00:42.265Z,11.20
2022-08-18T02:02:47.916Z,10.00
2022-08-18T02:05:08.911Z,12.00
2022-08-18T02:07:13.368Z,8.20
2022-08-18T02:09:16.010Z,11.00
2022-08-18T02:11:26.566Z,9.00
2022-08-18T02:13:29.781Z,6.80
2022-08-18T02:15:32.899Z,7.80
2022-08-18T02:17:43.482Z,6.20
2022-08-18T02:19:48.239Z,8.75
2022-08-18T02:21:52.917Z,7.40
2022-08-18T02:23:56.045Z,5.60
2022-08-18T02:25:58.591Z,8.00
2022-08-18T02:28:01.265Z,7.00
2022-08-18T02:30:08.191Z,5.25
2022-08-18T02:32:10.834Z,7.00
2022-08-18T02:34:13.597Z,4.75
2022-08-18T02:36:16.597Z,4.00
2022-08-18T02:38:19.097Z,7.20
2022-08-18T02:40:21.764Z,6.00
2022-08-18T02:42:24.889Z,6.00
2022-08-18T02:44:27.387Z,6.50
2022-08-18T02:46:31.412Z,7.00
2022-08-18T02:48:37.532Z,12.40
2022-08-18T02:50:47.134Z,17.00
2022-08-18T02:52:49.683Z,15.25
2022-08-18T02:54:53.263Z,14.00
2022-08-18T02:56:57.146Z,20.40
2022-08-18T02:59:06.798Z,21.40
2022-08-18T03:01:09.416Z,25.20
2022-08-18T03:03:13.465Z,25.75
2022-08-18T03:05:16.493Z,31.80
2022-08-18T03:07:26.442Z,30.00
2022-08-18T03:09:29.925Z,23.00
2022-08-18T03:11:32.578Z,21.00
2022-08-18T03:13:35.123Z,19.50
2022-08-18T03:15:37.708Z,24.00
2022-08-18T03:17:40.684Z,24.50
2022-08-18T03:19:47.681Z,21.20
2022-08-18T03:21:50.610Z,29.00
2022-08-18T03:24:01.531Z,32.75
2022-08-18T03:26:05.385Z,22.25
2022-08-18T03:28:07.922Z,26.00
2022-08-18T03:30:11.700Z,21.33
2022-08-18T03:32:14.661Z,19.00
2022-08-18T03:34:20.048Z,14.25
2022-08-18T03:36:27.045Z,11.25
2022-08-18T03:38:29.767Z,9.50
2022-08-18T03:40:32.430Z,4.60
2022-08-18T03:42:34.932Z,6.00
2022-08-18T03:44:40.262Z,4.60
2022-08-18T03:46:44.683Z,3.75
2022-08-18T03:48:47.790Z,2.40
2022-08-18T03:50:50.397Z,3.25
2022-08-18T03:52:54.386Z,5.60
2022-08-18T03:54:56.895Z,5.75
2022-08-18T03:57:00.511Z,4.50
2022-08-18T03:59:10.817Z,3.20
2022-08-18T04:01:27.145Z,3.00
2022-08-18T04:03:32.810Z,1.80
2022-08-18T04:05:40.174Z,0.50
2022-08-18T04:07:42.970Z,1.00
2022-08-18T04:09:47.078Z,2.80
2022-08-18T04:11:50.195Z,1.60
2022-08-18T04:13:52.707Z,0.60
2022-08-18T04:15:55.223Z,1.00
2022-08-18T04:18:04.544Z,1.00
2022-08-18T04:20:07.670Z,0.00
2022-08-18T04:22:10.367Z,1.00
2022-08-18T04:24:20.688Z,0.00
2022-08-18T04:26:23.178Z,0.00
2022-08-18T04:28:26.447Z,0.00
2022-08-18T04:30:29.191Z,1.00
2022-08-18T04:32:32.352Z,0.00
2022-08-18T04:34:35.264Z,0.50
2022-08-18T04:36:37.871Z,0.00
2022-08-18T04:38:44.583Z,1.00
2022-08-18T04:40:47.562Z,0.00
2022-08-18T04:42:50.215Z,1.00
2022-08-18T04:44:53.034Z,0.40
2022-08-18T04:46:56.138Z,1.00
2022-08-18T04:48:59.530Z,0.60
2022-08-18T04:52:37.898Z,1.00
2022-08-18T04:53:46.769Z,0.80
2022-08-18T04:55:55.867Z,0.25
2022-08-18T04:57:59.474Z,1.50
2022-08-18T05:00:03.145Z,1.60
2022-08-18T05:02:10.267Z,1.25
2022-08-18T05:04:17.299Z,2.40
2022-08-18T05:06:25.483Z,2.00
2022-08-18T05:08:28.051Z,2.00
2022-08-18T05:10:30.732Z,1.20
2022-08-18T05:12:33.196Z,1.40
2022-08-18T05:14:36.244Z,1.75
2022-08-18T05:16:42.183Z,2.00
2022-08-18T05:18:53.363Z,1.60
2022-08-18T05:21:00.343Z,2.00
2022-08-18T05:23:04.222Z,2.20
2022-08-18T05:25:08.845Z,1.20
2022-08-18T05:27:11.818Z,2.00
2022-08-18T05:29:18.572Z,4.50
2022-08-18T05:31:25.681Z,3.60
2022-08-18T05:33:28.268Z,4.00
2022-08-18T05:35:46.769Z,4.50
2022-08-18T05:38:18.319Z,2.00
2022-08-18T05:40:25.039Z,3.60
2022-08-18T05:42:33.970Z,2.00
2022-08-18T05:44:41.384Z,1.60
2022-08-18T05:47:00.221Z,2.00
2022-08-18T05:49:02.763Z,1.00
2022-08-18T05:51:25.420Z,2.00
2022-08-18T05:53:49.607Z,2.00
2022-08-18T05:56:21.372Z,1.00
2022-08-18T05:58:40.234Z,2.00
2022-08-18T06:00:56.248Z,2.00
2022-08-18T06:03:20.207Z,1.00
2022-08-18T06:05:46.883Z,1.00
2022-08-18T06:07:57.090Z,1.00
2022-08-18T06:09:59.587Z,0.80
2022-08-18T06:12:19.148Z,1.40
2022-08-18T06:14:22.723Z,0.33
2022-08-18T06:16:33.134Z,0.00
2022-08-18T06:18:54.125Z,1.40
2022-08-18T06:21:10.120Z,0.00
2022-08-18T06:23:25.325Z,2.20
2022-08-18T06:25:36.566Z,1.20
2022-08-18T06:27:55.917Z,1.00
2022-08-18T06:30:15.192Z,2.00
2022-08-18T06:32:41.923Z,2.40
2022-08-18T06:34:56.500Z,1.50
2022-08-18T06:37:10.110Z,2.25
2022-08-18T06:39:26.498Z,2.20
2022-08-18T06:41:45.362Z,1.00
2022-08-18T06:44:01.855Z,0.00
2022-08-18T06:46:12.601Z,0.80
2022-08-18T06:48:33.426Z,1.00
2022-08-18T06:50:54.203Z,1.00
2022-08-18T06:52:59.475Z,0.75
2022-08-18T06:55:07.966Z,0.40
2022-08-18T06:57:24.528Z,0.25
2022-08-18T06:59:32.618Z,1.00
2022-08-18T07:01:35.338Z,2.00
2022-08-18T07:04:04.324Z,0.00
2022-08-18T07:06:25.078Z,0.60
2022-08-18T07:08:36.366Z,2.60
2022-08-18T07:10:49.591Z,2.00
2022-08-18T07:12:52.503Z,2.00
2022-08-18T07:15:01.610Z,1.40
2022-08-18T07:17:08.425Z,2.00
2022-08-18T07:19:20.530Z,2.00
2022-08-18T07:21:28.868Z,3.25
2022-08-18T07:23:38.713Z,3.50
2022-08-18T07:25:46.849Z,7.00
2022-08-18T07:27:51.521Z,5.00
2022-08-18T07:30:06.018Z,6.00
2022-08-18T07:32:21.324Z,5.25
2022-08-18T07:34:31.968Z,8.25
2022-08-18T07:36:47.537Z,11.00
2022-08-18T07:38:57.032Z,20.25
2022-08-18T07:41:05.636Z,28.75
2022-08-18T07:43:46.811Z,22.60
2022-08-18T07:45:49.276Z,23.00
2022-08-18T07:48:37.618Z,18.00
2022-08-18T07:50:58.590Z,16.00
2022-08-18T07:53:18.120Z,11.75
2022-08-18T07:55:25.996Z,8.80
2022-08-18T07:57:46.714Z,8.00
2022-08-18T07:59:49.215Z,7.40
2022-08-18T08:02:33.968Z,6.00
2022-08-18T08:05:07.329Z,4.40
2022-08-18T08:07:30.787Z,4.60
2022-08-18T08:09:52.225Z,4.00
2022-08-18T08:12:02.611Z,3.00
2022-08-18T08:14:28.745Z,1.00
2022-08-18T08:16:50.256Z,1.25
2022-08-18T08:19:49.292Z,1.20
2022-08-18T08:22:01.361Z,1.75
2022-08-18T08:24:12.962Z,0.50
2022-08-18T08:26:28.167Z,0.20
2022-08-18T08:28:31.334Z,1.00
2022-08-18T08:30:42.138Z,0.50
2022-08-18T08:33:03.830Z,1.00
2022-08-18T08:35:50.064Z,0.40
2022-08-18T08:37:58.467Z,0.40
2022-08-18T08:40:18.205Z,0.00
2022-08-18T08:42:50.756Z,0.00
2022-08-18T08:45:00.973Z,1.50
2022-08-18T08:47:11.090Z,0.80
2022-08-18T08:49:22.688Z,0.00
2022-08-18T08:51:43.726Z,0.00
2022-08-18T08:53:54.405Z,1.00
2022-08-18T08:56:06.480Z,0.00
2022-08-18T08:58:37.826Z,0.00
2022-08-18T09:00:42.541Z,0.25
2022-08-18T09:03:18.513Z,0.00
2022-08-18T09:06:12.617Z,0.00
2022-08-18T09:08:51.804Z,0.00
2022-08-18T09:11:12.566Z,0.00
2022-08-18T09:13:29.953Z,0.00
2022-08-18T09:15:59.582Z,0.00
2022-08-18T09:18:11.246Z,0.00
2022-08-18T09:20:44.474Z,0.00
2022-08-18T09:23:05.163Z,0.00
2022-08-18T09:25:11.396Z,0.00
2022-08-18T09:27:48.482Z,0.00
2022-08-18T09:29:57.623Z,1.00
2022-08-18T09:32:20.175Z,1.00
2022-08-18T09:34:45.768Z,0.00
2022-08-18T09:36:54.850Z,0.00
2022-08-18T09:39:53.893Z,0.00
2022-08-18T09:42:04.391Z,0.00
2022-08-18T09:44:21.542Z,1.00
2022-08-18T09:46:44.166Z,0.00
2022-08-18T09:48:46.775Z,0.00
2022-08-18T09:50:54.254Z,1.00
2022-08-18T09:53:02.297Z,1.20
2022-08-18T09:55:27.099Z,0.20
2022-08-18T10:00:04.557Z,1.00
2022-08-18T10:02:24.188Z,1.00
2022-08-18T10:04:34.669Z,2.25
2022-08-18T10:06:38.905Z,2.20
2022-08-18T10:09:36.715Z,2.80
2022-08-18T10:11:52.151Z,1.00
2022-08-18T10:14:32.815Z,0.60
2022-08-18T10:17:22.560Z,0.75
2022-08-18T10:19:40.924Z,1.00
2022-08-18T10:22:01.809Z,0.50
2022-08-18T10:24:32.169Z,1.00
2022-08-18T10:26:31.497Z,1.75
2022-08-18T10:28:56.200Z,1.00
2022-08-18T10:31:09.809Z,0.00
2022-08-18T10:34:12.097Z,1.00
2022-08-18T10:36:40.394Z,2.60
2022-08-18T10:38:52.051Z,1.00
2022-08-18T10:41:26.313Z,3.60
2022-08-18T10:43:55.240Z,0.20
2022-08-18T10:46:24.325Z,0.00
2022-08-18T10:48:30.914Z,0.00
2022-08-18T10:51:00.489Z,0.00
2022-08-18T10:53:39.037Z,0.00
2022-08-18T10:55:58.934Z,1.00
2022-08-18T10:58:53.574Z,1.00
2022-08-18T11:01:24.591Z,0.00
2022-08-18T11:03:59.001Z,0.00
2022-08-18T11:06:06.743Z,0.00
2022-08-18T11:08:20.629Z,0.00
2022-08-18T11:10:57.740Z,0.00
2022-08-18T11:13:09.637Z,3.00
2022-08-18T11:15:26.665Z,5.00
2022-08-18T11:18:14.147Z,2.75
2022-08-18T11:20:18.949Z,3.50
2022-08-18T11:22:32.331Z,0.00
2022-08-18T11:24:35.791Z,0.00
2022-08-18T11:26:52.615Z,0.50
2022-08-18T11:28:55.955Z,1.20
2022-08-18T11:31:00.143Z,5.00
2022-08-18T11:33:04.175Z,5.00
2022-08-18T11:35:24.095Z,3.20
2022-08-18T11:38:03.429Z,5.00
2022-08-18T11:41:02.417Z,1.75
2022-08-18T11:42:56.356Z,4.00
2022-08-18T11:45:17.125Z,3.25
2022-08-18T11:47:27.665Z,4.40
2022-08-18T11:49:34.024Z,3.50
2022-08-18T11:51:36.810Z,3.00
2022-08-18T11:53:57.569Z,3.00
2022-08-18T11:56:20.066Z,3.00
2022-08-18T11:58:50.756Z,4.00
2022-08-18T12:00:57.222Z,4.00
2022-08-18T12:03:30.529Z,6.00
2022-08-18T12:05:55.810Z,3.50
2022-08-18T12:08:01.860Z,4.25
2022-08-18T12:10:30.154Z,3.80
2022-08-18T12:12:34.999Z,6.00
2022-08-18T12:15:01.093Z,5.80
2022-08-18T12:17:08.451Z,3.25
2022-08-18T12:19:13.890Z,4.25
2022-08-18T12:21:16.749Z,4.00
2022-08-18T12:23:21.251Z,5.20
2022-08-18T12:25:25.024Z,5.00
2022-08-18T12:27:31.891Z,6.25
2022-08-18T12:29:43.305Z,5.60
2022-08-18T12:31:50.306Z,6.00
2022-08-18T12:34:01.071Z,6.60
2022-08-18T12:36:05.748Z,8.80
2022-08-18T12:38:13.323Z,8.00
2022-08-18T12:40:17.185Z,8.00
2022-08-18T12:42:20.272Z,7.75
2022-08-18T12:44:23.196Z,5.20
2022-08-18T12:46:30.616Z,8.00
2022-08-18T12:48:37.888Z,5.80
2022-08-18T12:50:54.147Z,6.00
2022-08-18T12:53:02.007Z,8.20
2022-08-18T12:55:08.713Z,7.20
2022-08-18T12:59:51.044Z,6.00
2022-08-18T13:01:58.448Z,7.60
2022-08-18T13:06:27.484Z,6.20
2022-08-18T13:08:38.044Z,7.60
2022-08-18T13:10:45.444Z,7.00
2022-08-18T13:12:48.722Z,6.33
2022-08-18T13:14:54.904Z,7.80
2022-08-18T13:16:57.557Z,9.00
2022-08-18T13:19:00.213Z,9.00
2022-08-18T13:21:04.069Z,8.50
2022-08-18T13:23:09.895Z,6.25
2022-08-18T13:25:32.396Z,10.00
2022-08-18T13:27:38.716Z,9.50
2022-08-18T13:29:48.480Z,7.75
2022-08-18T13:31:58.049Z,7.60
2022-08-18T13:34:04.080Z,10.80
2022-08-18T13:36:07.519Z,6.60
2022-08-18T13:38:15.797Z,7.00
2022-08-18T13:40:22.614Z,5.00
2022-08-18T13:42:50.281Z,7.00
2022-08-18T13:44:55.095Z,8.00
2022-08-18T13:47:03.467Z,5.40
2022-08-18T13:49:06.240Z,6.00
2022-08-18T13:51:11.860Z,5.75
2022-08-18T13:53:20.324Z,7.25
2022-08-18T13:55:23.597Z,7.00
2022-08-18T13:57:26.199Z,5.00
2022-08-18T13:59:32.992Z,6.00
2022-08-18T14:01:44.746Z,5.00
2022-08-18T14:03:54.571Z,6.00
2022-08-18T14:06:03.123Z,6.00
2022-08-18T14:08:09.947Z,5.00
2022-08-18T14:10:14.122Z,5.00
2022-08-18T14:12:31.030Z,4.00
2022-08-18T14:14:35.788Z,3.00
2022-08-18T14:16:39.072Z,4.00
2022-08-18T14:19:04.987Z,3.25
2022-08-18T14:21:31.304Z,3.60
2022-08-18T14:24:06.215Z,3.20
2022-08-18T14:26:31.895Z,4.00
2022-08-18T14:28:34.624Z,4.00
2022-08-18T14:30:38.321Z,3.00
2022-08-18T14:32:48.812Z,5.00
2022-08-18T14:34:59.817Z,4.00
2022-08-18T14:37:03.587Z,4.40
2022-08-18T14:39:06.266Z,4.00
2022-08-18T14:41:14.737Z,4.00
2022-08-18T14:43:21.557Z,5.00
2022-08-18T14:45:35.462Z,4.80
2022-08-18T14:47:38.555Z,3.50
2022-08-18T14:49:43.061Z,4.00
2022-08-18T14:51:51.123Z,4.00
2022-08-18T14:53:53.750Z,3.25
2022-08-18T14:55:59.218Z,4.00
2022-08-18T14:58:01.970Z,4.50
2022-08-18T15:00:10.321Z,1.60
2022-08-18T15:02:15.930Z,1.20
2022-08-18T15:04:19.843Z,2.20
2022-08-18T15:06:26.971Z,2.00
2022-08-18T15:08:30.141Z,2.00
2022-08-18T15:10:33.764Z,2.50
2022-08-18T15:12:37.646Z,1.20
2022-08-18T15:14:41.002Z,2.00
2022-08-18T15:16:45.196Z,2.00
2022-08-18T15:18:49.321Z,2.80
2022-08-18T15:21:34.803Z,2.00
2022-08-18T15:23:55.963Z,3.00
2022-08-18T15:26:00.857Z,2.00
2022-08-18T15:28:03.753Z,2.20
2022-08-18T15:30:09.742Z,2.00
2022-08-18T15:32:17.553Z,2.60
2022-08-18T15:34:20.816Z,1.00
2022-08-18T15:36:28.776Z,2.00
2022-08-18T15:38:32.032Z,2.00
2022-08-18T15:40:41.445Z,1.75
2022-08-18T15:42:53.274Z,1.00
2022-08-18T15:45:11.264Z,2.00
2022-08-18T15:47:14.879Z,2.00
2022-08-18T15:49:24.085Z,2.00
2022-08-18T15:51:27.112Z,2.20
2022-08-18T15:53:40.006Z,2.00
2022-08-18T15:55:47.376Z,1.75
2022-08-18T15:57:57.077Z,2.00
2022-08-18T16:00:02.163Z,2.00
2022-08-18T16:02:19.201Z,1.00
2022-08-18T16:04:22.022Z,2.25
2022-08-18T16:06:32.199Z,2.00
2022-08-18T16:08:35.143Z,2.00
2022-08-18T16:10:40.029Z,2.00
2022-08-18T16:12:46.066Z,2.60
2022-08-18T16:14:49.602Z,1.40
2022-08-18T16:16:52.211Z,0.50
2022-08-18T16:18:54.812Z,2.25
2022-08-18T16:21:06.196Z,1.00
2022-08-18T16:23:09.104Z,2.00
2022-08-18T16:25:11.796Z,2.00
2022-08-18T16:27:14.723Z,2.00
2022-08-18T16:29:17.447Z,1.25
2022-08-18T16:31:25.160Z,2.00
2022-08-18T16:33:28.104Z,1.60
2022-08-18T16:35:31.774Z,2.00
2022-08-18T16:37:34.364Z,1.60
2022-08-18T16:39:37.227Z,1.50
2022-08-18T16:41:39.997Z,1.20
2022-08-18T16:43:44.742Z,0.00
2022-08-18T16:45:48.654Z,2.00
2022-08-18T16:47:54.437Z,1.00
2022-08-18T16:49:58.743Z,0.00
2022-08-18T16:52:04.880Z,0.80
2022-08-18T16:54:07.522Z,1.00
2022-08-18T16:56:19.018Z,1.00
2022-08-18T16:59:00.335Z,1.00
2022-08-18T17:01:21.660Z,0.60
2022-08-18T17:03:43.713Z,2.00
2022-08-18T17:05:46.350Z,1.00
2022-08-18T17:07:49.397Z,0.80
2022-08-18T17:09:52.806Z,1.00
2022-08-18T17:11:55.805Z,0.00
2022-08-18T17:14:02.009Z,1.00
2022-08-18T17:16:05.003Z,1.60
2022-08-18T17:18:08.144Z,1.00
2022-08-18T17:20:11.540Z,0.00
2022-08-18T17:22:15.170Z,0.80
2022-08-18T17:24:19.846Z,1.00
2022-08-18T17:26:55.763Z,0.25
2022-08-18T17:29:26.358Z,0.00
2022-08-18T17:31:29.307Z,0.00
2022-08-18T17:33:34.147Z,0.60
2022-08-18T17:35:40.079Z,2.20
2022-08-18T17:37:53.274Z,0.75
2022-08-18T17:40:06.946Z,1.00
2022-08-18T17:42:27.725Z,2.00
2022-08-18T17:44:31.673Z,0.80
2022-08-18T17:46:40.153Z,2.00
2022-08-18T17:48:54.773Z,1.60
2022-08-18T17:51:22.202Z,1.00
2022-08-18T17:53:25.977Z,1.40
2022-08-18T17:55:51.923Z,1.40
2022-08-18T17:58:03.952Z,1.50
2022-08-18T18:00:12.161Z,1.50
2022-08-18T18:02:29.672Z,3.20
2022-08-18T18:04:32.911Z,3.00
2022-08-18T18:06:36.033Z,5.00
2022-08-18T18:09:12.575Z,2.00
2022-08-18T18:11:15.216Z,4.50
2022-08-18T18:13:28.169Z,2.40
2022-08-18T18:15:32.918Z,5.00
2022-08-18T18:17:41.051Z,4.60
2022-08-18T18:19:46.647Z,4.00
2022-08-18T18:22:10.571Z,5.75
2022-08-18T18:24:15.536Z,6.00
2022-08-18T18:26:43.014Z,4.50
2022-08-18T18:28:49.571Z,4.40
2022-08-18T18:30:52.244Z,4.50
2022-08-18T18:33:14.508Z,3.75
2022-08-18T18:35:16.937Z,3.75
2022-08-18T18:37:34.555Z,4.00
2022-08-18T18:39:37.161Z,3.00
2022-08-18T18:41:41.155Z,2.00
2022-08-18T18:43:47.063Z,2.00
2022-08-18T18:46:18.851Z,1.00
2022-08-18T18:48:48.250Z,1.00
2022-08-18T18:51:10.529Z,0.20
2022-08-18T18:53:49.914Z,2.00
2022-08-18T18:55:55.549Z,1.75
2022-08-18T18:58:22.941Z,2.00
2022-08-18T19:00:54.001Z,2.00
2022-08-18T19:03:16.258Z,2.80
2022-08-18T19:05:48.359Z,1.00
2022-08-18T19:08:09.774Z,3.25
2022-08-18T19:10:45.535Z,2.00
2022-08-18T19:13:30.296Z,2.60
2022-08-18T19:15:39.063Z,3.00
2022-08-18T19:17:46.890Z,4.50
2022-08-18T19:20:05.507Z,3.80
2022-08-18T19:22:59.136Z,3.00
2022-08-18T19:25:17.559Z,3.80
2022-08-18T19:27:27.367Z,2.50
2022-08-18T19:29:43.662Z,1.60
2022-08-18T19:31:51.496Z,2.00
2022-08-18T19:34:08.319Z,3.00
2022-08-18T19:36:19.747Z,1.00
2022-08-18T19:38:32.016Z,2.20
2022-08-18T19:40:48.174Z,2.00
2022-08-18T19:43:06.414Z,2.00
2022-08-18T19:45:29.734Z,1.75
2022-08-18T19:47:45.618Z,1.00
2022-08-18T19:49:55.415Z,2.00
2022-08-18T19:52:04.315Z,2.00
2022-08-18T19:54:15.613Z,1.80
2022-08-18T19:56:38.433Z,0.50
2022-08-18T19:59:33.993Z,2.50
2022-08-18T20:01:45.956Z,2.75
2022-08-18T20:04:25.941Z,0.60
2022-08-18T20:06:40.279Z,2.00
2022-08-18T20:09:21.084Z,2.00
2022-08-18T20:11:50.192Z,1.00
2022-08-18T20:13:56.844Z,2.00
2022-08-18T20:16:02.218Z,1.60
2022-08-18T20:18:19.920Z,1.00
2022-08-18T20:20:25.365Z,1.20
2022-08-18T20:22:43.271Z,0.40
2022-08-18T20:25:05.597Z,2.00
2022-08-18T20:27:23.170Z,1.25
2022-08-18T20:29:37.199Z,1.75
2022-08-18T20:32:03.241Z,1.20
2022-08-18T20:34:13.991Z,2.60
2022-08-18T20:36:28.819Z,1.50
2022-08-18T20:38:45.722Z,1.25
2022-08-18T20:40:51.499Z,2.25
2022-08-18T20:42:56.267Z,1.75
2022-08-18T20:45:29.332Z,1.00
2022-08-18T20:47:53.632Z,3.00
2022-08-18T20:50:21.628Z,4.60
2022-08-18T20:52:35.916Z,2.25
2022-08-18T20:54:57.858Z,3.00
2022-08-18T20:57:02.699Z,0.60
2022-08-18T20:59:29.123Z,3.50
2022-08-18T21:01:32.504Z,2.00
2022-08-18T21:03:41.586Z,2.40
2022-08-18T21:05:45.922Z,1.40
2022-08-18T21:08:18.015Z,1.00
2022-08-18T21:10:24.384Z,4.00
2022-08-18T21:12:30.778Z,1.00
2022-08-18T21:14:33.449Z,4.00
2022-08-18T21:16:39.148Z,2.80
2022-08-18T21:19:04.553Z,2.25
2022-08-18T21:21:26.681Z,3.00
2022-08-18T21:23:37.670Z,2.80
2022-08-18T21:25:56.104Z,2.80
2022-08-18T21:28:00.146Z,3.00
2022-08-18T21:30:19.637Z,1.25
2022-08-18T21:32:31.560Z,4.00
2022-08-18T21:34:40.679Z,2.80
2022-08-18T21:36:53.814Z,2.20
2022-08-18T21:39:05.109Z,2.00
2022-08-18T21:41:13.803Z,1.80
2022-08-18T21:43:49.024Z,1.50
2022-08-18T21:45:56.254Z,2.00
2022-08-18T21:48:04.741Z,1.75
2022-08-18T21:50:23.093Z,1.80
2022-08-18T21:52:27.369Z,3.00
2022-08-18T21:54:34.544Z,1.60
2022-08-18T21:56:38.027Z,3.00
2022-08-18T21:58:45.466Z,3.00
2022-08-18T22:01:13.856Z,2.00
2022-08-18T22:03:28.282Z,1.80
2022-08-18T22:05:55.006Z,2.00
2022-08-18T22:07:55.827Z,3.00
2022-08-18T22:10:37.021Z,2.80
2022-08-18T22:13:13.552Z,1.20
2022-08-18T22:15:26.985Z,2.40
2022-08-18T22:17:40.578Z,3.00
2022-08-18T22:19:43.240Z,2.00
2022-08-18T22:21:49.913Z,2.40
2022-08-18T22:24:11.512Z,2.80
2022-08-18T22:26:16.824Z,3.50
2022-08-18T22:28:27.339Z,3.60
2022-08-18T22:30:30.199Z,3.25
2022-08-18T22:32:37.742Z,3.00
2022-08-18T22:34:41.088Z,2.60
2022-08-18T22:37:00.798Z,3.00
2022-08-18T22:39:05.321Z,2.40
2022-08-18T22:41:11.523Z,3.00
2022-08-18T22:43:17.187Z,4.50
2022-08-18T22:45:20.690Z,2.00
2022-08-18T22:47:24.099Z,2.80
2022-08-18T22:49:26.585Z,2.00
2022-08-18T22:51:32.459Z,4.00
2022-08-18T22:53:36.280Z,2.75
2022-08-18T22:55:38.870Z,5.00
2022-08-18T22:57:42.862Z,5.00
2022-08-18T22:59:46.979Z,3.00
2022-08-18T23:01:51.237Z,3.40
2022-08-18T23:03:53.812Z,3.50
2022-08-18T23:05:56.386Z,3.20
2022-08-18T23:07:59.147Z,2.20
2022-08-18T23:10:01.768Z,3.50
2022-08-18T23:12:15.650Z,4.00
2022-08-18T23:14:18.930Z,2.00
2022-08-18T23:16:30.633Z,2.60
2022-08-18T23:18:34.810Z,3.00
2022-08-18T23:20:37.639Z,2.00
2022-08-18T23:22:43.741Z,3.00
2022-08-18T23:24:46.473Z,2.00
2022-08-18T23:26:50.018Z,2.00
2022-08-18T23:28:53.486Z,1.75
2022-08-18T23:30:56.736Z,3.80
2022-08-18T23:32:59.334Z,2.00
2022-08-18T23:35:02.465Z,2.75
2022-08-18T23:37:05.723Z,0.50
2022-08-18T23:39:08.258Z,1.67
2022-08-18T23:41:13.380Z,2.00
2022-08-18T23:43:16.526Z,1.00
2022-08-18T23:45:19.591Z,0.00
2022-08-18T23:47:22.114Z,2.00
2022-08-18T23:49:26.342Z,1.80
2022-08-18T23:51:34.831Z,1.00
2022-08-18T23:53:38.238Z,1.75
2022-08-18T23:55:41.665Z,1.00
2022-08-18T23:57:44.202Z,1.00
2022-08-18T23:59:46.820Z,0.60
